sensor_id;sensor_type;location;lat;lon;timestamp;temperature;humidity
40177;DHT22;31511;46.176;9.874;2023-05-07T00:02:44;17.10;99.90
40177;DHT22;31511;46.176;9.874;2023-05-07T00:05:29;17.20;1.00
40177;DHT22;31511;46.176;9.874;2023-05-07T00:08:14;17.20;1.00
40177;DHT22;31511;46.176;9.874;2023-05-07T00:11:00;16.80;99.90
40177;DHT22;31511;46.176;9.874;2023-05-07T00:13:45;16.70;99.90
40177;DHT22;31511;46.176;9.874;2023-05-07T00:16:30;16.90;99.90
40177;DHT22;31511;46.176;9.874;2023-05-07T00:19:16;17.00;99.90
40177;DHT22;31511;46.176;9.874;2023-05-07T00:22:01;16.90;99.90
40177;DHT22;31511;46.176;9.874;2023-05-07T00:24:45;16.80;99.90
40177;DHT22;31511;46.176;9.874;2023-05-07T00:27:29;16.80;1.00
40177;DHT22;31511;46.176;9.874;2023-05-07T00:30:13;16.80;1.00
40177;DHT22;31511;46.176;9.874;2023-05-07T00:32:58;16.90;1.00
40177;DHT22;31511;46.176;9.874;2023-05-07T00:35:42;16.80;1.00
40177;DHT22;31511;46.176;9.874;2023-05-07T00:38:28;16.80;1.00
40177;DHT22;31511;46.176;9.874;2023-05-07T00:41:13;16.80;1.00
40177;DHT22;31511;46.176;9.874;2023-05-07T00:43:59;16.80;1.00
40177;DHT22;31511;46.176;9.874;2023-05-07T00:46:43;16.80;1.00
40177;DHT22;31511;46.176;9.874;2023-05-07T00:49:46;16.80;1.00
40177;DHT22;31511;46.176;9.874;2023-05-07T00:52:30;16.80;1.00
40177;DHT22;31511;46.176;9.874;2023-05-07T00:55:15;16.80;1.00
40177;DHT22;31511;46.176;9.874;2023-05-07T00:58:00;16.80;1.00
40177;DHT22;31511;46.176;9.874;2023-05-07T01:00:44;17.00;99.90
40177;DHT22;31511;46.176;9.874;2023-05-07T01:03:29;16.90;99.90
40177;DHT22;31511;46.176;9.874;2023-05-07T01:06:14;16.80;99.90
40177;DHT22;31511;46.176;9.874;2023-05-07T01:09:00;16.70;99.90
40177;DHT22;31511;46.176;9.874;2023-05-07T01:11:44;16.60;1.00
40177;DHT22;31511;46.176;9.874;2023-05-07T01:14:29;16.70;1.00
40177;DHT22;31511;46.176;9.874;2023-05-07T01:17:15;16.60;1.00
40177;DHT22;31511;46.176;9.874;2023-05-07T01:20:00;16.70;1.00
40177;DHT22;31511;46.176;9.874;2023-05-07T01:22:44;16.70;1.00
40177;DHT22;31511;46.176;9.874;2023-05-07T01:25:30;16.60;1.00
40177;DHT22;31511;46.176;9.874;2023-05-07T01:28:15;17.00;1.00
40177;DHT22;31511;46.176;9.874;2023-05-07T01:31:03;16.70;1.00
40177;DHT22;31511;46.176;9.874;2023-05-07T01:33:47;16.80;1.00
40177;DHT22;31511;46.176;9.874;2023-05-07T01:36:32;16.70;1.00
40177;DHT22;31511;46.176;9.874;2023-05-07T01:39:16;16.70;1.00
40177;DHT22;31511;46.176;9.874;2023-05-07T01:42:01;16.80;1.00
40177;DHT22;31511;46.176;9.874;2023-05-07T01:44:45;16.80;1.00
40177;DHT22;31511;46.176;9.874;2023-05-07T01:47:30;17.00;99.90
40177;DHT22;31511;46.176;9.874;2023-05-07T01:50:14;16.80;1.00
40177;DHT22;31511;46.176;9.874;2023-05-07T01:53:01;16.50;1.00
40177;DHT22;31511;46.176;9.874;2023-05-07T01:55:45;16.70;1.00
40177;DHT22;31511;46.176;9.874;2023-05-07T01:58:30;16.50;1.00
40177;DHT22;31511;46.176;9.874;2023-05-07T02:01:15;16.80;1.00
40177;DHT22;31511;46.176;9.874;2023-05-07T02:03:59;16.70;1.00
40177;DHT22;31511;46.176;9.874;2023-05-07T02:06:43;16.60;1.00
40177;DHT22;31511;46.176;9.874;2023-05-07T02:09:29;16.60;1.00
40177;DHT22;31511;46.176;9.874;2023-05-07T02:12:15;16.50;1.00
40177;DHT22;31511;46.176;9.874;2023-05-07T02:15:00;16.50;1.00
40177;DHT22;31511;46.176;9.874;2023-05-07T02:20:43;16.60;1.00
40177;DHT22;31511;46.176;9.874;2023-05-07T02:23:29;16.80;99.90
40177;DHT22;31511;46.176;9.874;2023-05-07T02:26:14;16.80;99.90
40177;DHT22;31511;46.176;9.874;2023-05-07T02:28:59;16.80;1.00
40177;DHT22;31511;46.176;9.874;2023-05-07T02:31:43;16.80;1.00
40177;DHT22;31511;46.176;9.874;2023-05-07T02:34:28;16.90;99.90
40177;DHT22;31511;46.176;9.874;2023-05-07T02:37:14;16.60;99.90
40177;DHT22;31511;46.176;9.874;2023-05-07T02:39:59;16.50;1.00
40177;DHT22;31511;46.176;9.874;2023-05-07T02:42:43;16.40;1.00
40177;DHT22;31511;46.176;9.874;2023-05-07T02:45:32;16.50;1.00
40177;DHT22;31511;46.176;9.874;2023-05-07T02:48:16;16.40;1.00
40177;DHT22;31511;46.176;9.874;2023-05-07T02:51:02;16.60;1.00
40177;DHT22;31511;46.176;9.874;2023-05-07T02:53:46;16.40;1.00
40177;DHT22;31511;46.176;9.874;2023-05-07T02:56:30;16.30;1.00
40177;DHT22;31511;46.176;9.874;2023-05-07T02:59:14;16.40;1.00
40177;DHT22;31511;46.176;9.874;2023-05-07T03:01:59;16.60;1.00
40177;DHT22;31511;46.176;9.874;2023-05-07T03:04:44;16.60;1.00
40177;DHT22;31511;46.176;9.874;2023-05-07T03:07:29;16.60;1.00
40177;DHT22;31511;46.176;9.874;2023-05-07T03:10:16;16.30;1.00
40177;DHT22;31511;46.176;9.874;2023-05-07T03:13:00;16.40;1.00
40177;DHT22;31511;46.176;9.874;2023-05-07T03:15:45;16.30;1.00
40177;DHT22;31511;46.176;9.874;2023-05-07T03:18:30;16.20;1.00
40177;DHT22;31511;46.176;9.874;2023-05-07T03:21:15;16.20;1.00
40177;DHT22;31511;46.176;9.874;2023-05-07T03:24:00;16.20;1.00
40177;DHT22;31511;46.176;9.874;2023-05-07T03:26:44;16.30;1.00
40177;DHT22;31511;46.176;9.874;2023-05-07T03:29:29;16.40;1.00
40177;DHT22;31511;46.176;9.874;2023-05-07T03:32:15;16.40;99.90
40177;DHT22;31511;46.176;9.874;2023-05-07T03:35:00;16.30;99.90
40177;DHT22;31511;46.176;9.874;2023-05-07T03:37:44;16.30;99.90
40177;DHT22;31511;46.176;9.874;2023-05-07T03:40:29;16.40;1.00
40177;DHT22;31511;46.176;9.874;2023-05-07T03:43:14;16.30;1.00
40177;DHT22;31511;46.176;9.874;2023-05-07T03:45:58;16.30;1.00
40177;DHT22;31511;46.176;9.874;2023-05-07T03:48:43;16.30;1.00
40177;DHT22;31511;46.176;9.874;2023-05-07T03:51:28;16.20;1.00
40177;DHT22;31511;46.176;9.874;2023-05-07T03:54:14;16.30;1.00
40177;DHT22;31511;46.176;9.874;2023-05-07T03:57:00;16.30;1.00
40177;DHT22;31511;46.176;9.874;2023-05-07T03:59:44;16.20;1.00
40177;DHT22;31511;46.176;9.874;2023-05-07T04:02:29;16.20;1.00
40177;DHT22;31511;46.176;9.874;2023-05-07T04:05:14;16.30;1.00
40177;DHT22;31511;46.176;9.874;2023-05-07T04:07:59;16.40;1.00
40177;DHT22;31511;46.176;9.874;2023-05-07T04:10:44;16.30;1.00
40177;DHT22;31511;46.176;9.874;2023-05-07T04:13:29;16.40;99.90
40177;DHT22;31511;46.176;9.874;2023-05-07T04:16:15;16.40;99.90
40177;DHT22;31511;46.176;9.874;2023-05-07T04:19:00;16.30;99.90
40177;DHT22;31511;46.176;9.874;2023-05-07T04:21:44;16.60;99.90
40177;DHT22;31511;46.176;9.874;2023-05-07T04:24:32;16.40;99.90
40177;DHT22;31511;46.176;9.874;2023-05-07T04:27:16;16.40;1.00
40177;DHT22;31511;46.176;9.874;2023-05-07T04:30:01;16.40;99.90
40177;DHT22;31511;46.176;9.874;2023-05-07T04:32:47;16.10;1.00
40177;DHT22;31511;46.176;9.874;2023-05-07T04:35:32;16.00;1.00
40177;DHT22;31511;46.176;9.874;2023-05-07T04:38:16;16.00;1.00
40177;DHT22;31511;46.176;9.874;2023-05-07T04:41:05;16.10;1.00
40177;DHT22;31511;46.176;9.874;2023-05-07T04:43:50;16.20;1.00
40177;DHT22;31511;46.176;9.874;2023-05-07T04:46:35;16.10;1.00
40177;DHT22;31511;46.176;9.874;2023-05-07T04:49:20;16.20;1.00
40177;DHT22;31511;46.176;9.874;2023-05-07T04:52:05;16.10;1.00
40177;DHT22;31511;46.176;9.874;2023-05-07T04:54:50;16.10;99.90
40177;DHT22;31511;46.176;9.874;2023-05-07T04:57:34;16.10;99.90
40177;DHT22;31511;46.176;9.874;2023-05-07T05:00:18;16.30;99.90
40177;DHT22;31511;46.176;9.874;2023-05-07T05:03:03;16.20;99.90
40177;DHT22;31511;46.176;9.874;2023-05-07T05:05:51;16.50;99.90
40177;DHT22;31511;46.176;9.874;2023-05-07T05:08:35;16.50;99.90
40177;DHT22;31511;46.176;9.874;2023-05-07T05:11:21;16.40;99.90
40177;DHT22;31511;46.176;9.874;2023-05-07T05:14:06;16.40;99.90
40177;DHT22;31511;46.176;9.874;2023-05-07T05:16:50;16.50;99.90
40177;DHT22;31511;46.176;9.874;2023-05-07T05:19:34;16.60;99.90
40177;DHT22;31511;46.176;9.874;2023-05-07T05:22:19;16.40;1.00
40177;DHT22;31511;46.176;9.874;2023-05-07T05:25:03;16.20;1.00
40177;DHT22;31511;46.176;9.874;2023-05-07T05:27:47;16.20;1.00
40177;DHT22;31511;46.176;9.874;2023-05-07T05:30:31;16.30;99.90
40177;DHT22;31511;46.176;9.874;2023-05-07T05:33:15;16.40;99.90
40177;DHT22;31511;46.176;9.874;2023-05-07T05:36:00;16.30;99.90
40177;DHT22;31511;46.176;9.874;2023-05-07T05:38:45;16.30;99.90
40177;DHT22;31511;46.176;9.874;2023-05-07T05:41:30;16.40;99.90
40177;DHT22;31511;46.176;9.874;2023-05-07T05:44:14;16.50;99.90
40177;DHT22;31511;46.176;9.874;2023-05-07T05:47:01;16.50;99.90
40177;DHT22;31511;46.176;9.874;2023-05-07T05:49:45;16.30;99.90
40177;DHT22;31511;46.176;9.874;2023-05-07T05:52:30;16.40;99.90
40177;DHT22;31511;46.176;9.874;2023-05-07T05:55:15;16.40;1.00
40177;DHT22;31511;46.176;9.874;2023-05-07T05:58:00;16.40;1.00
40177;DHT22;31511;46.176;9.874;2023-05-07T06:00:45;16.50;99.90
40177;DHT22;31511;46.176;9.874;2023-05-07T06:03:30;16.70;99.90
40177;DHT22;31511;46.176;9.874;2023-05-07T06:06:16;16.60;99.90
40177;DHT22;31511;46.176;9.874;2023-05-07T06:09:00;16.80;99.90
40177;DHT22;31511;46.176;9.874;2023-05-07T06:11:45;16.80;99.90
40177;DHT22;31511;46.176;9.874;2023-05-07T06:14:29;17.00;99.90
40177;DHT22;31511;46.176;9.874;2023-05-07T06:17:13;17.20;99.90
40177;DHT22;31511;46.176;9.874;2023-05-07T06:19:58;17.30;99.90
40177;DHT22;31511;46.176;9.874;2023-05-07T06:22:42;17.40;99.90
40177;DHT22;31511;46.176;9.874;2023-05-07T06:25:28;17.30;99.90
40177;DHT22;31511;46.176;9.874;2023-05-07T06:28:14;17.10;99.90
40177;DHT22;31511;46.176;9.874;2023-05-07T06:31:10;17.20;99.90
40177;DHT22;31511;46.176;9.874;2023-05-07T06:33:55;17.30;99.90
40177;DHT22;31511;46.176;9.874;2023-05-07T06:36:40;17.20;99.90
40177;DHT22;31511;46.176;9.874;2023-05-07T06:39:26;17.20;99.90
40177;DHT22;31511;46.176;9.874;2023-05-07T06:42:11;17.30;99.90
40177;DHT22;31511;46.176;9.874;2023-05-07T06:44:56;17.50;99.90
40177;DHT22;31511;46.176;9.874;2023-05-07T06:47:40;17.40;99.90
40177;DHT22;31511;46.176;9.874;2023-05-07T06:50:26;17.70;99.90
40177;DHT22;31511;46.176;9.874;2023-05-07T06:53:11;17.80;99.90
40177;DHT22;31511;46.176;9.874;2023-05-07T06:55:56;17.90;99.90
40177;DHT22;31511;46.176;9.874;2023-05-07T06:58:41;17.90;99.90
40177;DHT22;31511;46.176;9.874;2023-05-07T07:01:26;17.90;99.90
40177;DHT22;31511;46.176;9.874;2023-05-07T07:04:12;17.90;99.90
40177;DHT22;31511;46.176;9.874;2023-05-07T07:06:57;17.80;99.90
40177;DHT22;31511;46.176;9.874;2023-05-07T07:09:41;17.90;99.90
40177;DHT22;31511;46.176;9.874;2023-05-07T07:12:26;18.00;99.90
40177;DHT22;31511;46.176;9.874;2023-05-07T07:15:13;17.70;99.90
40177;DHT22;31511;46.176;9.874;2023-05-07T07:18:00;17.80;99.90
40177;DHT22;31511;46.176;9.874;2023-05-07T07:20:44;18.00;99.90
40177;DHT22;31511;46.176;9.874;2023-05-07T07:23:30;18.30;99.90
40177;DHT22;31511;46.176;9.874;2023-05-07T07:26:17;18.10;99.90
40177;DHT22;31511;46.176;9.874;2023-05-07T07:29:02;18.20;99.90
40177;DHT22;31511;46.176;9.874;2023-05-07T07:31:47;18.20;99.90
40177;DHT22;31511;46.176;9.874;2023-05-07T07:34:32;18.10;99.90
40177;DHT22;31511;46.176;9.874;2023-05-07T07:37:16;18.20;99.90
40177;DHT22;31511;46.176;9.874;2023-05-07T07:40:00;18.30;99.90
40177;DHT22;31511;46.176;9.874;2023-05-07T07:42:44;18.50;99.90
40177;DHT22;31511;46.176;9.874;2023-05-07T07:45:29;18.50;99.90
40177;DHT22;31511;46.176;9.874;2023-05-07T07:48:14;18.50;99.90
40177;DHT22;31511;46.176;9.874;2023-05-07T07:50:58;18.50;99.90
40177;DHT22;31511;46.176;9.874;2023-05-07T07:53:42;18.80;99.90
40177;DHT22;31511;46.176;9.874;2023-05-07T07:56:28;18.90;99.90
40177;DHT22;31511;46.176;9.874;2023-05-07T07:59:14;18.90;99.90
40177;DHT22;31511;46.176;9.874;2023-05-07T08:02:02;18.80;99.90
40177;DHT22;31511;46.176;9.874;2023-05-07T08:04:46;18.80;99.90
40177;DHT22;31511;46.176;9.874;2023-05-07T08:07:30;19.00;99.90
40177;DHT22;31511;46.176;9.874;2023-05-07T08:10:15;19.10;99.90
40177;DHT22;31511;46.176;9.874;2023-05-07T08:13:05;18.90;99.90
40177;DHT22;31511;46.176;9.874;2023-05-07T08:15:49;18.90;99.90
40177;DHT22;31511;46.176;9.874;2023-05-07T08:18:33;19.00;99.90
40177;DHT22;31511;46.176;9.874;2023-05-07T08:21:18;19.10;99.90
40177;DHT22;31511;46.176;9.874;2023-05-07T08:24:04;19.20;99.90
40177;DHT22;31511;46.176;9.874;2023-05-07T08:26:48;19.30;99.90
40177;DHT22;31511;46.176;9.874;2023-05-07T08:29:33;19.40;99.90
40177;DHT22;31511;46.176;9.874;2023-05-07T08:32:18;19.30;99.90
40177;DHT22;31511;46.176;9.874;2023-05-07T08:35:03;19.40;99.90
40177;DHT22;31511;46.176;9.874;2023-05-07T08:37:48;19.50;99.90
40177;DHT22;31511;46.176;9.874;2023-05-07T08:40:36;19.50;99.90
40177;DHT22;31511;46.176;9.874;2023-05-07T08:43:22;19.40;99.90
40177;DHT22;31511;46.176;9.874;2023-05-07T08:46:08;19.50;99.90
40177;DHT22;31511;46.176;9.874;2023-05-07T08:48:55;19.40;99.90
40177;DHT22;31511;46.176;9.874;2023-05-07T08:51:39;19.30;99.90
40177;DHT22;31511;46.176;9.874;2023-05-07T08:54:24;19.30;99.90
40177;DHT22;31511;46.176;9.874;2023-05-07T08:57:10;19.30;99.90
40177;DHT22;31511;46.176;9.874;2023-05-07T08:59:55;19.60;99.90
40177;DHT22;31511;46.176;9.874;2023-05-07T09:02:39;19.70;99.90
40177;DHT22;31511;46.176;9.874;2023-05-07T09:05:25;19.80;99.90
40177;DHT22;31511;46.176;9.874;2023-05-07T09:08:14;20.10;99.90
40177;DHT22;31511;46.176;9.874;2023-05-07T09:10:58;20.10;99.90
40177;DHT22;31511;46.176;9.874;2023-05-07T09:13:42;20.30;99.90
40177;DHT22;31511;46.176;9.874;2023-05-07T09:16:29;20.50;99.90
40177;DHT22;31511;46.176;9.874;2023-05-07T09:19:14;20.60;99.90
40177;DHT22;31511;46.176;9.874;2023-05-07T09:21:59;20.90;99.90
40177;DHT22;31511;46.176;9.874;2023-05-07T09:24:48;20.90;99.90
40177;DHT22;31511;46.176;9.874;2023-05-07T09:27:32;20.90;99.90
40177;DHT22;31511;46.176;9.874;2023-05-07T09:30:16;21.10;99.90
40177;DHT22;31511;46.176;9.874;2023-05-07T09:33:02;21.20;99.90
40177;DHT22;31511;46.176;9.874;2023-05-07T09:35:47;21.40;99.90
40177;DHT22;31511;46.176;9.874;2023-05-07T09:38:35;21.30;99.90
40177;DHT22;31511;46.176;9.874;2023-05-07T09:41:20;21.20;99.90
40177;DHT22;31511;46.176;9.874;2023-05-07T09:44:05;21.50;99.90
40177;DHT22;31511;46.176;9.874;2023-05-07T09:46:53;21.60;99.90
40177;DHT22;31511;46.176;9.874;2023-05-07T09:49:39;21.40;99.90
40177;DHT22;31511;46.176;9.874;2023-05-07T09:52:27;21.20;99.90
40177;DHT22;31511;46.176;9.874;2023-05-07T09:55:17;21.30;99.90
40177;DHT22;31511;46.176;9.874;2023-05-07T09:58:02;21.80;99.90
40177;DHT22;31511;46.176;9.874;2023-05-07T10:00:48;22.10;99.90
40177;DHT22;31511;46.176;9.874;2023-05-07T10:03:33;22.00;99.90
40177;DHT22;31511;46.176;9.874;2023-05-07T10:06:20;22.10;99.90
40177;DHT22;31511;46.176;9.874;2023-05-07T10:09:05;22.10;99.90
40177;DHT22;31511;46.176;9.874;2023-05-07T10:11:50;22.30;99.90
40177;DHT22;31511;46.176;9.874;2023-05-07T10:14:34;22.50;99.90
40177;DHT22;31511;46.176;9.874;2023-05-07T10:17:23;22.70;99.90
40177;DHT22;31511;46.176;9.874;2023-05-07T10:20:09;23.30;99.90
40177;DHT22;31511;46.176;9.874;2023-05-07T10:22:57;25.50;99.90
40177;DHT22;31511;46.176;9.874;2023-05-07T10:25:42;26.70;99.90
40177;DHT22;31511;46.176;9.874;2023-05-07T10:28:27;27.10;99.90
40177;DHT22;31511;46.176;9.874;2023-05-07T10:31:21;27.00;99.90
40177;DHT22;31511;46.176;9.874;2023-05-07T10:34:12;28.10;99.90
40177;DHT22;31511;46.176;9.874;2023-05-07T10:36:58;29.10;99.90
40177;DHT22;31511;46.176;9.874;2023-05-07T10:39:42;29.30;99.90
40177;DHT22;31511;46.176;9.874;2023-05-07T10:42:28;29.80;99.90
40177;DHT22;31511;46.176;9.874;2023-05-07T10:45:14;29.70;99.90
40177;DHT22;31511;46.176;9.874;2023-05-07T10:48:10;29.90;99.90
40177;DHT22;31511;46.176;9.874;2023-05-07T10:51:17;30.50;99.90
40177;DHT22;31511;46.176;9.874;2023-05-07T10:56:57;31.00;99.90
40177;DHT22;31511;46.176;9.874;2023-05-07T10:59:42;30.20;99.90
40177;DHT22;31511;46.176;9.874;2023-05-07T11:03:08;30.10;99.90
40177;DHT22;31511;46.176;9.874;2023-05-07T11:05:33;29.20;99.90
40177;DHT22;31511;46.176;9.874;2023-05-07T11:08:18;28.70;99.90
40177;DHT22;31511;46.176;9.874;2023-05-07T11:11:02;27.80;99.90
40177;DHT22;31511;46.176;9.874;2023-05-07T11:13:47;27.90;99.90
40177;DHT22;31511;46.176;9.874;2023-05-07T11:16:31;27.90;99.90
40177;DHT22;31511;46.176;9.874;2023-05-07T11:19:17;27.70;99.90
40177;DHT22;31511;46.176;9.874;2023-05-07T11:25:19;27.10;99.90
40177;DHT22;31511;46.176;9.874;2023-05-07T11:28:05;27.50;99.90
40177;DHT22;31511;46.176;9.874;2023-05-07T11:30:50;28.30;99.90
40177;DHT22;31511;46.176;9.874;2023-05-07T11:33:35;29.50;99.90
40177;DHT22;31511;46.176;9.874;2023-05-07T11:36:22;29.80;99.90
40177;DHT22;31511;46.176;9.874;2023-05-07T11:39:22;28.90;99.90
40177;DHT22;31511;46.176;9.874;2023-05-07T11:42:24;29.30;99.90
40177;DHT22;31511;46.176;9.874;2023-05-07T11:45:11;29.40;99.90
40177;DHT22;31511;46.176;9.874;2023-05-07T11:47:56;30.00;99.90
40177;DHT22;31511;46.176;9.874;2023-05-07T11:50:53;29.60;99.90
40177;DHT22;31511;46.176;9.874;2023-05-07T11:53:38;28.70;99.90
40177;DHT22;31511;46.176;9.874;2023-05-07T11:56:24;28.50;99.90
40177;DHT22;31511;46.176;9.874;2023-05-07T11:59:10;29.10;99.90
40177;DHT22;31511;46.176;9.874;2023-05-07T12:01:58;29.10;99.90
40177;DHT22;31511;46.176;9.874;2023-05-07T12:04:43;29.50;99.90
40177;DHT22;31511;46.176;9.874;2023-05-07T12:07:29;28.80;99.90
40177;DHT22;31511;46.176;9.874;2023-05-07T12:10:16;27.90;99.90
40177;DHT22;31511;46.176;9.874;2023-05-07T12:13:08;27.50;99.90
40177;DHT22;31511;46.176;9.874;2023-05-07T12:15:59;28.40;99.90
40177;DHT22;31511;46.176;9.874;2023-05-07T12:18:47;27.20;99.90
40177;DHT22;31511;46.176;9.874;2023-05-07T12:21:31;26.80;99.90
40177;DHT22;31511;46.176;9.874;2023-05-07T12:24:15;27.00;99.90
40177;DHT22;31511;46.176;9.874;2023-05-07T12:27:00;26.30;99.90
40177;DHT22;31511;46.176;9.874;2023-05-07T12:29:48;27.60;99.90
40177;DHT22;31511;46.176;9.874;2023-05-07T12:32:33;27.10;99.90
40177;DHT22;31511;46.176;9.874;2023-05-07T12:35:30;26.50;99.90
40177;DHT22;31511;46.176;9.874;2023-05-07T12:38:16;26.70;99.90
40177;DHT22;31511;46.176;9.874;2023-05-07T12:41:01;26.80;99.90
40177;DHT22;31511;46.176;9.874;2023-05-07T12:43:45;26.30;99.90
40177;DHT22;31511;46.176;9.874;2023-05-07T12:46:29;26.10;99.90
40177;DHT22;31511;46.176;9.874;2023-05-07T12:49:14;26.50;99.90
40177;DHT22;31511;46.176;9.874;2023-05-07T12:51:59;26.40;99.90
40177;DHT22;31511;46.176;9.874;2023-05-07T12:54:43;26.10;99.90
40177;DHT22;31511;46.176;9.874;2023-05-07T12:57:29;25.70;99.90
40177;DHT22;31511;46.176;9.874;2023-05-07T13:00:13;25.80;99.90
40177;DHT22;31511;46.176;9.874;2023-05-07T13:02:58;26.00;99.90
40177;DHT22;31511;46.176;9.874;2023-05-07T13:05:42;25.60;99.90
40177;DHT22;31511;46.176;9.874;2023-05-07T13:08:33;25.30;99.90
40177;DHT22;31511;46.176;9.874;2023-05-07T13:11:18;25.40;99.90
40177;DHT22;31511;46.176;9.874;2023-05-07T13:14:04;25.10;99.90
40177;DHT22;31511;46.176;9.874;2023-05-07T13:16:48;25.10;99.90
40177;DHT22;31511;46.176;9.874;2023-05-07T13:19:33;25.40;99.90
40177;DHT22;31511;46.176;9.874;2023-05-07T13:22:18;25.30;99.90
40177;DHT22;31511;46.176;9.874;2023-05-07T13:25:04;25.40;99.90
40177;DHT22;31511;46.176;9.874;2023-05-07T13:27:48;25.70;99.90
40177;DHT22;31511;46.176;9.874;2023-05-07T13:30:32;25.40;99.90
40177;DHT22;31511;46.176;9.874;2023-05-07T13:33:16;25.30;99.90
40177;DHT22;31511;46.176;9.874;2023-05-07T13:36:01;25.10;99.90
40177;DHT22;31511;46.176;9.874;2023-05-07T13:38:47;24.80;99.90
40177;DHT22;31511;46.176;9.874;2023-05-07T13:41:32;24.60;99.90
40177;DHT22;31511;46.176;9.874;2023-05-07T13:44:16;24.40;99.90
40177;DHT22;31511;46.176;9.874;2023-05-07T13:47:01;24.20;99.90
40177;DHT22;31511;46.176;9.874;2023-05-07T13:49:46;24.30;99.90
40177;DHT22;31511;46.176;9.874;2023-05-07T13:52:33;24.20;99.90
40177;DHT22;31511;46.176;9.874;2023-05-07T13:55:17;24.20;99.90
40177;DHT22;31511;46.176;9.874;2023-05-07T13:58:06;24.20;99.90
40177;DHT22;31511;46.176;9.874;2023-05-07T14:00:51;24.20;99.90
40177;DHT22;31511;46.176;9.874;2023-05-07T14:03:35;24.20;99.90
40177;DHT22;31511;46.176;9.874;2023-05-07T14:06:22;24.40;99.90
40177;DHT22;31511;46.176;9.874;2023-05-07T14:09:07;24.50;99.90
40177;DHT22;31511;46.176;9.874;2023-05-07T14:11:52;24.40;99.90
40177;DHT22;31511;46.176;9.874;2023-05-07T14:14:36;24.40;99.90
40177;DHT22;31511;46.176;9.874;2023-05-07T14:17:21;24.60;99.90
40177;DHT22;31511;46.176;9.874;2023-05-07T14:20:09;24.60;99.90
40177;DHT22;31511;46.176;9.874;2023-05-07T14:22:54;24.20;99.90
40177;DHT22;31511;46.176;9.874;2023-05-07T14:25:38;24.30;99.90
40177;DHT22;31511;46.176;9.874;2023-05-07T14:28:24;24.10;99.90
40177;DHT22;31511;46.176;9.874;2023-05-07T14:31:10;24.10;99.90
40177;DHT22;31511;46.176;9.874;2023-05-07T14:33:54;23.90;99.90
40177;DHT22;31511;46.176;9.874;2023-05-07T14:36:38;23.90;99.90
40177;DHT22;31511;46.176;9.874;2023-05-07T14:39:24;23.70;99.90
40177;DHT22;31511;46.176;9.874;2023-05-07T14:42:10;23.70;99.90
40177;DHT22;31511;46.176;9.874;2023-05-07T14:44:55;23.50;99.90
40177;DHT22;31511;46.176;9.874;2023-05-07T14:47:39;23.50;99.90
40177;DHT22;31511;46.176;9.874;2023-05-07T14:50:25;23.60;99.90
40177;DHT22;31511;46.176;9.874;2023-05-07T14:53:10;23.50;99.90
40177;DHT22;31511;46.176;9.874;2023-05-07T14:55:55;23.60;99.90
40177;DHT22;31511;46.176;9.874;2023-05-07T14:58:40;23.30;99.90
40177;DHT22;31511;46.176;9.874;2023-05-07T15:01:26;23.40;99.90
40177;DHT22;31511;46.176;9.874;2023-05-07T15:04:11;23.10;99.90
40177;DHT22;31511;46.176;9.874;2023-05-07T15:06:56;22.90;99.90
40177;DHT22;31511;46.176;9.874;2023-05-07T15:09:44;22.70;99.90
40177;DHT22;31511;46.176;9.874;2023-05-07T15:12:29;22.60;99.90
40177;DHT22;31511;46.176;9.874;2023-05-07T15:15:14;22.60;99.90
40177;DHT22;31511;46.176;9.874;2023-05-07T15:17:59;22.60;99.90
40177;DHT22;31511;46.176;9.874;2023-05-07T15:20:46;22.80;99.90
40177;DHT22;31511;46.176;9.874;2023-05-07T15:23:30;23.00;99.90
40177;DHT22;31511;46.176;9.874;2023-05-07T15:26:15;23.00;99.90
40177;DHT22;31511;46.176;9.874;2023-05-07T15:29:00;22.90;99.90
40177;DHT22;31511;46.176;9.874;2023-05-07T15:31:46;22.90;99.90
40177;DHT22;31511;46.176;9.874;2023-05-07T15:34:31;23.20;99.90
40177;DHT22;31511;46.176;9.874;2023-05-07T15:37:15;23.50;99.90
40177;DHT22;31511;46.176;9.874;2023-05-07T15:39:59;23.60;99.90
40177;DHT22;31511;46.176;9.874;2023-05-07T15:42:46;23.70;99.90
40177;DHT22;31511;46.176;9.874;2023-05-07T15:45:30;23.80;99.90
40177;DHT22;31511;46.176;9.874;2023-05-07T15:48:14;23.60;99.90
40177;DHT22;31511;46.176;9.874;2023-05-07T15:50:59;23.40;99.90
40177;DHT22;31511;46.176;9.874;2023-05-07T15:53:44;23.30;99.90
40177;DHT22;31511;46.176;9.874;2023-05-07T15:56:28;23.30;99.90
40177;DHT22;31511;46.176;9.874;2023-05-07T15:59:16;23.30;99.90
40177;DHT22;31511;46.176;9.874;2023-05-07T16:02:01;23.30;99.90
40177;DHT22;31511;46.176;9.874;2023-05-07T16:04:45;23.30;99.90
40177;DHT22;31511;46.176;9.874;2023-05-07T16:07:30;23.20;99.90
40177;DHT22;31511;46.176;9.874;2023-05-07T16:10:14;23.20;99.90
40177;DHT22;31511;46.176;9.874;2023-05-07T16:13:00;23.10;99.90
40177;DHT22;31511;46.176;9.874;2023-05-07T16:15:45;23.10;99.90
40177;DHT22;31511;46.176;9.874;2023-05-07T16:18:30;23.00;99.90
40177;DHT22;31511;46.176;9.874;2023-05-07T16:21:16;22.80;99.90
40177;DHT22;31511;46.176;9.874;2023-05-07T16:24:01;22.50;99.90
40177;DHT22;31511;46.176;9.874;2023-05-07T16:26:45;22.40;99.90
40177;DHT22;31511;46.176;9.874;2023-05-07T16:29:29;22.40;99.90
40177;DHT22;31511;46.176;9.874;2023-05-07T16:32:14;22.30;99.90
40177;DHT22;31511;46.176;9.874;2023-05-07T16:35:00;22.20;99.90
40177;DHT22;31511;46.176;9.874;2023-05-07T16:37:44;22.10;99.90
40177;DHT22;31511;46.176;9.874;2023-05-07T16:40:29;21.90;99.90
40177;DHT22;31511;46.176;9.874;2023-05-07T16:43:13;21.70;99.90
40177;DHT22;31511;46.176;9.874;2023-05-07T16:45:58;21.80;99.90
40177;DHT22;31511;46.176;9.874;2023-05-07T16:48:42;21.80;99.90
40177;DHT22;31511;46.176;9.874;2023-05-07T16:51:28;21.70;99.90
40177;DHT22;31511;46.176;9.874;2023-05-07T16:54:13;20.80;99.90
40177;DHT22;31511;46.176;9.874;2023-05-07T16:56:58;20.10;99.90
40177;DHT22;31511;46.176;9.874;2023-05-07T16:59:42;19.90;99.90
40177;DHT22;31511;46.176;9.874;2023-05-07T17:02:28;19.90;99.90
40177;DHT22;31511;46.176;9.874;2023-05-07T17:05:14;20.30;99.90
40177;DHT22;31511;46.176;9.874;2023-05-07T17:07:59;20.60;99.90
40177;DHT22;31511;46.176;9.874;2023-05-07T17:10:43;20.60;99.90
40177;DHT22;31511;46.176;9.874;2023-05-07T17:13:30;20.40;99.90
40177;DHT22;31511;46.176;9.874;2023-05-07T17:16:14;20.50;99.90
40177;DHT22;31511;46.176;9.874;2023-05-07T17:18:59;20.70;99.90
40177;DHT22;31511;46.176;9.874;2023-05-07T17:21:43;20.60;99.90
40177;DHT22;31511;46.176;9.874;2023-05-07T17:24:29;20.60;99.90
40177;DHT22;31511;46.176;9.874;2023-05-07T17:27:14;20.50;99.90
40177;DHT22;31511;46.176;9.874;2023-05-07T17:29:58;20.40;99.90
40177;DHT22;31511;46.176;9.874;2023-05-07T17:32:42;20.30;99.90
40177;DHT22;31511;46.176;9.874;2023-05-07T17:35:28;20.10;99.90
40177;DHT22;31511;46.176;9.874;2023-05-07T17:38:15;20.20;99.90
40177;DHT22;31511;46.176;9.874;2023-05-07T17:41:00;20.20;99.90